sensor_id;sensor_type;location;lat;lon;timestamp;P1;durP1;ratioP1;P2;durP2;ratioP2
51270;SDS011;37744;50.960;4.136;2022-11-12T00:03:21;17.48;;;10.18;;
51270;SDS011;37744;50.960;4.136;2022-11-12T00:06:47;13.55;;;8.63;;
51270;SDS011;37744;50.960;4.136;2022-11-12T00:10:12;14.85;;;8.35;;
51270;SDS011;37744;50.960;4.136;2022-11-12T00:13:36;10.75;;;8.18;;
51270;SDS011;37744;50.960;4.136;2022-11-12T00:20:34;11.05;;;6.90;;
51270;SDS011;37744;50.960;4.136;2022-11-12T00:23:58;9.32;;;6.35;;
51270;SDS011;37744;50.960;4.136;2022-11-12T00:27:24;10.25;;;6.22;;
51270;SDS011;37744;50.960;4.136;2022-11-12T00:34:16;16.42;;;9.80;;
51270;SDS011;37744;50.960;4.136;2022-11-12T00:37:39;15.32;;;9.82;;
51270;SDS011;37744;50.960;4.136;2022-11-12T00:41:13;14.32;;;9.90;;
51270;SDS011;37744;50.960;4.136;2022-11-12T00:44:38;14.50;;;9.75;;
51270;SDS011;37744;50.960;4.136;2022-11-12T00:48:02;13.35;;;9.23;;
51270;SDS011;37744;50.960;4.136;2022-11-12T00:51:26;12.87;;;9.33;;
51270;SDS011;37744;50.960;4.136;2022-11-12T00:58:18;10.85;;;7.82;;
51270;SDS011;37744;50.960;4.136;2022-11-12T01:01:43;10.52;;;7.10;;
51270;SDS011;37744;50.960;4.136;2022-11-12T01:08:33;9.77;;;6.53;;
51270;SDS011;37744;50.960;4.136;2022-11-12T01:11:57;7.23;;;6.00;;
51270;SDS011;37744;50.960;4.136;2022-11-12T01:15:21;9.63;;;6.22;;
51270;SDS011;37744;50.960;4.136;2022-11-12T01:18:49;7.38;;;5.95;;
51270;SDS011;37744;50.960;4.136;2022-11-12T01:22:14;9.07;;;5.95;;
51270;SDS011;37744;50.960;4.136;2022-11-12T01:25:38;7.07;;;5.30;;
51270;SDS011;37744;50.960;4.136;2022-11-12T01:29:03;7.75;;;5.57;;
51270;SDS011;37744;50.960;4.136;2022-11-12T01:32:28;7.03;;;5.32;;
51270;SDS011;37744;50.960;4.136;2022-11-12T01:35:52;8.53;;;5.80;;
51270;SDS011;37744;50.960;4.136;2022-11-12T01:39:15;8.00;;;5.90;;
51270;SDS011;37744;50.960;4.136;2022-11-12T01:46:13;8.25;;;5.05;;
51270;SDS011;37744;50.960;4.136;2022-11-12T01:49:52;5.75;;;4.80;;
51270;SDS011;37744;50.960;4.136;2022-11-12T01:53:19;7.07;;;5.30;;
51270;SDS011;37744;50.960;4.136;2022-11-12T01:56:46;7.95;;;5.28;;
51270;SDS011;37744;50.960;4.136;2022-11-12T02:00:20;6.68;;;5.15;;
51270;SDS011;37744;50.960;4.136;2022-11-12T02:07:11;8.18;;;5.57;;
51270;SDS011;37744;50.960;4.136;2022-11-12T02:10:37;6.95;;;5.03;;
51270;SDS011;37744;50.960;4.136;2022-11-12T02:17:26;9.25;;;5.90;;
51270;SDS011;37744;50.960;4.136;2022-11-12T02:27:42;7.10;;;4.57;;
51270;SDS011;37744;50.960;4.136;2022-11-12T02:31:06;6.00;;;4.72;;
51270;SDS011;37744;50.960;4.136;2022-11-12T02:34:31;5.75;;;4.70;;
51270;SDS011;37744;50.960;4.136;2022-11-12T02:37:58;6.10;;;5.13;;
51270;SDS011;37744;50.960;4.136;2022-11-12T02:41:22;5.95;;;4.80;;
51270;SDS011;37744;50.960;4.136;2022-11-12T02:44:46;8.73;;;5.70;;
51270;SDS011;37744;50.960;4.136;2022-11-12T02:48:12;7.97;;;5.47;;
51270;SDS011;37744;50.960;4.136;2022-11-12T02:51:35;6.10;;;4.72;;
51270;SDS011;37744;50.960;4.136;2022-11-12T02:55:00;7.53;;;5.30;;
51270;SDS011;37744;50.960;4.136;2022-11-12T03:01:48;8.20;;;5.25;;
51270;SDS011;37744;50.960;4.136;2022-11-12T03:05:23;5.95;;;5.18;;
51270;SDS011;37744;50.960;4.136;2022-11-12T03:08:47;5.63;;;4.95;;
51270;SDS011;37744;50.960;4.136;2022-11-12T03:12:11;6.23;;;4.97;;
51270;SDS011;37744;50.960;4.136;2022-11-12T03:15:35;6.47;;;5.07;;
51270;SDS011;37744;50.960;4.136;2022-11-12T03:18:59;5.40;;;4.10;;
51270;SDS011;37744;50.960;4.136;2022-11-12T03:22:24;5.37;;;4.33;;
51270;SDS011;37744;50.960;4.136;2022-11-12T03:25:50;6.10;;;4.60;;
51270;SDS011;37744;50.960;4.136;2022-11-12T03:29:14;7.00;;;4.77;;
51270;SDS011;37744;50.960;4.136;2022-11-12T03:32:38;7.38;;;5.72;;
51270;SDS011;37744;50.960;4.136;2022-11-12T03:36:04;6.17;;;4.80;;
51270;SDS011;37744;50.960;4.136;2022-11-12T03:39:31;8.52;;;5.25;;
51270;SDS011;37744;50.960;4.136;2022-11-12T03:42:57;6.40;;;4.63;;
51270;SDS011;37744;50.960;4.136;2022-11-12T03:46:21;7.95;;;5.70;;
51270;SDS011;37744;50.960;4.136;2022-11-12T03:49:44;6.78;;;5.40;;
51270;SDS011;37744;50.960;4.136;2022-11-12T03:53:08;7.97;;;5.53;;
51270;SDS011;37744;50.960;4.136;2022-11-12T03:56:33;8.67;;;5.70;;
51270;SDS011;37744;50.960;4.136;2022-11-12T03:59:57;8.65;;;5.60;;
51270;SDS011;37744;50.960;4.136;2022-11-12T04:03:22;7.78;;;5.70;;
51270;SDS011;37744;50.960;4.136;2022-11-12T04:06:47;8.32;;;6.40;;
51270;SDS011;37744;50.960;4.136;2022-11-12T04:10:39;7.57;;;5.45;;
51270;SDS011;37744;50.960;4.136;2022-11-12T04:14:02;9.93;;;6.07;;
51270;SDS011;37744;50.960;4.136;2022-11-12T04:17:27;8.38;;;6.07;;
51270;SDS011;37744;50.960;4.136;2022-11-12T04:21:10;9.07;;;6.55;;
51270;SDS011;37744;50.960;4.136;2022-11-12T04:24:38;8.77;;;6.05;;
51270;SDS011;37744;50.960;4.136;2022-11-12T04:35:32;11.43;;;7.78;;
51270;SDS011;37744;50.960;4.136;2022-11-12T04:38:56;11.80;;;8.57;;
51270;SDS011;37744;50.960;4.136;2022-11-12T04:42:42;9.88;;;7.35;;
51270;SDS011;37744;50.960;4.136;2022-11-12T04:46:28;10.57;;;7.43;;
51270;SDS011;37744;50.960;4.136;2022-11-12T04:49:54;12.50;;;7.32;;
51270;SDS011;37744;50.960;4.136;2022-11-12T04:53:20;11.18;;;7.22;;
51270;SDS011;37744;50.960;4.136;2022-11-12T04:56:44;12.15;;;7.60;;
51270;SDS011;37744;50.960;4.136;2022-11-12T05:00:09;8.77;;;6.87;;
51270;SDS011;37744;50.960;4.136;2022-11-12T05:03:33;11.90;;;7.43;;
51270;SDS011;37744;50.960;4.136;2022-11-12T05:06:57;12.50;;;8.45;;
51270;SDS011;37744;50.960;4.136;2022-11-12T05:10:26;11.77;;;8.25;;
51270;SDS011;37744;50.960;4.136;2022-11-12T05:13:50;11.65;;;8.95;;
51270;SDS011;37744;50.960;4.136;2022-11-12T05:17:16;12.43;;;8.27;;
51270;SDS011;37744;50.960;4.136;2022-11-12T05:20:40;9.30;;;6.85;;
51270;SDS011;37744;50.960;4.136;2022-11-12T05:24:22;11.30;;;7.78;;
51270;SDS011;37744;50.960;4.136;2022-11-12T05:27:46;11.13;;;7.37;;
51270;SDS011;37744;50.960;4.136;2022-11-12T05:31:10;10.47;;;7.03;;
51270;SDS011;37744;50.960;4.136;2022-11-12T05:38:08;9.10;;;6.65;;
51270;SDS011;37744;50.960;4.136;2022-11-12T05:41:32;8.02;;;6.43;;
51270;SDS011;37744;50.960;4.136;2022-11-12T05:44:56;11.33;;;6.27;;
51270;SDS011;37744;50.960;4.136;2022-11-12T05:48:20;8.07;;;6.07;;
51270;SDS011;37744;50.960;4.136;2022-11-12T05:51:44;10.60;;;7.90;;
51270;SDS011;37744;50.960;4.136;2022-11-12T05:55:09;8.27;;;6.57;;
51270;SDS011;37744;50.960;4.136;2022-11-12T05:58:35;9.15;;;6.50;;
51270;SDS011;37744;50.960;4.136;2022-11-12T06:01:59;9.45;;;6.78;;
51270;SDS011;37744;50.960;4.136;2022-11-12T06:05:24;11.43;;;7.63;;
51270;SDS011;37744;50.960;4.136;2022-11-12T06:08:50;10.68;;;7.30;;
51270;SDS011;37744;50.960;4.136;2022-11-12T06:12:15;14.35;;;9.15;;
51270;SDS011;37744;50.960;4.136;2022-11-12T06:15:39;10.60;;;7.78;;
51270;SDS011;37744;50.960;4.136;2022-11-12T06:19:05;10.95;;;7.13;;
51270;SDS011;37744;50.960;4.136;2022-11-12T06:22:30;8.77;;;6.43;;
51270;SDS011;37744;50.960;4.136;2022-11-12T06:25:54;11.93;;;8.10;;
51270;SDS011;37744;50.960;4.136;2022-11-12T06:29:17;51.90;;;27.90;;
51270;SDS011;37744;50.960;4.136;2022-11-12T06:32:44;27.40;;;15.90;;
51270;SDS011;37744;50.960;4.136;2022-11-12T06:36:09;28.23;;;19.58;;
51270;SDS011;37744;50.960;4.136;2022-11-12T06:39:34;23.67;;;15.43;;
51270;SDS011;37744;50.960;4.136;2022-11-12T06:42:59;22.02;;;13.63;;
51270;SDS011;37744;50.960;4.136;2022-11-12T06:49:47;13.60;;;8.85;;
51270;SDS011;37744;50.960;4.136;2022-11-12T06:53:11;11.80;;;8.10;;
51270;SDS011;37744;50.960;4.136;2022-11-12T06:56:35;12.98;;;8.05;;
51270;SDS011;37744;50.960;4.136;2022-11-12T06:59:59;11.43;;;8.03;;
51270;SDS011;37744;50.960;4.136;2022-11-12T07:03:29;12.57;;;8.90;;
51270;SDS011;37744;50.960;4.136;2022-11-12T07:06:54;14.63;;;9.45;;
51270;SDS011;37744;50.960;4.136;2022-11-12T07:10:18;12.93;;;9.07;;
51270;SDS011;37744;50.960;4.136;2022-11-12T07:17:12;15.68;;;9.63;;
51270;SDS011;37744;50.960;4.136;2022-11-12T07:24:03;10.85;;;7.18;;
51270;SDS011;37744;50.960;4.136;2022-11-12T07:31:00;15.07;;;10.25;;
51270;SDS011;37744;50.960;4.136;2022-11-12T07:34:25;16.05;;;11.40;;
51270;SDS011;37744;50.960;4.136;2022-11-12T07:37:52;16.00;;;10.97;;
51270;SDS011;37744;50.960;4.136;2022-11-12T07:41:21;16.73;;;9.98;;
51270;SDS011;37744;50.960;4.136;2022-11-12T07:44:47;17.65;;;10.38;;
51270;SDS011;37744;50.960;4.136;2022-11-12T07:48:14;15.93;;;9.50;;
51270;SDS011;37744;50.960;4.136;2022-11-12T07:51:40;13.80;;;8.98;;
51270;SDS011;37744;50.960;4.136;2022-11-12T07:55:05;13.32;;;8.48;;
51270;SDS011;37744;50.960;4.136;2022-11-12T07:58:29;12.70;;;7.95;;
51270;SDS011;37744;50.960;4.136;2022-11-12T08:01:53;10.80;;;7.57;;
51270;SDS011;37744;50.960;4.136;2022-11-12T08:05:24;12.55;;;8.02;;
51270;SDS011;37744;50.960;4.136;2022-11-12T08:15:46;15.40;;;8.80;;
51270;SDS011;37744;50.960;4.136;2022-11-12T08:19:10;13.90;;;8.95;;
51270;SDS011;37744;50.960;4.136;2022-11-12T08:22:34;14.43;;;8.77;;
51270;SDS011;37744;50.960;4.136;2022-11-12T08:25:59;13.15;;;9.07;;
51270;SDS011;37744;50.960;4.136;2022-11-12T08:29:24;14.85;;;9.30;;
51270;SDS011;37744;50.960;4.136;2022-11-12T08:33:00;12.90;;;8.90;;
51270;SDS011;37744;50.960;4.136;2022-11-12T08:36:35;16.77;;;10.52;;
51270;SDS011;37744;50.960;4.136;2022-11-12T08:39:59;17.45;;;10.30;;
51270;SDS011;37744;50.960;4.136;2022-11-12T08:43:24;20.15;;;11.50;;
51270;SDS011;37744;50.960;4.136;2022-11-12T08:46:50;17.75;;;10.73;;
51270;SDS011;37744;50.960;4.136;2022-11-12T08:50:14;17.15;;;10.88;;
51270;SDS011;37744;50.960;4.136;2022-11-12T08:53:38;18.60;;;11.17;;
51270;SDS011;37744;50.960;4.136;2022-11-12T08:57:02;18.70;;;11.80;;
51270;SDS011;37744;50.960;4.136;2022-11-12T09:00:32;15.55;;;11.02;;
51270;SDS011;37744;50.960;4.136;2022-11-12T09:03:58;19.30;;;12.60;;
51270;SDS011;37744;50.960;4.136;2022-11-12T09:07:22;19.52;;;12.57;;
51270;SDS011;37744;50.960;4.136;2022-11-12T09:10:47;20.95;;;13.70;;
51270;SDS011;37744;50.960;4.136;2022-11-12T09:14:11;22.08;;;14.93;;
51270;SDS011;37744;50.960;4.136;2022-11-12T09:17:37;19.20;;;9.90;;
51270;SDS011;37744;50.960;4.136;2022-11-12T09:21:02;15.93;;;9.15;;
51270;SDS011;37744;50.960;4.136;2022-11-12T09:24:28;14.77;;;9.05;;
51270;SDS011;37744;50.960;4.136;2022-11-12T09:27:54;13.73;;;8.35;;
51270;SDS011;37744;50.960;4.136;2022-11-12T09:31:19;14.02;;;9.25;;
51270;SDS011;37744;50.960;4.136;2022-11-12T09:34:45;15.07;;;9.18;;
51270;SDS011;37744;50.960;4.136;2022-11-12T09:38:13;14.02;;;8.52;;
51270;SDS011;37744;50.960;4.136;2022-11-12T09:41:37;13.45;;;8.10;;
51270;SDS011;37744;50.960;4.136;2022-11-12T09:48:51;10.35;;;7.57;;
51270;SDS011;37744;50.960;4.136;2022-11-12T09:52:26;12.85;;;7.63;;
51270;SDS011;37744;50.960;4.136;2022-11-12T09:56:04;9.35;;;6.53;;
51270;SDS011;37744;50.960;4.136;2022-11-12T09:59:30;9.63;;;7.30;;
51270;SDS011;37744;50.960;4.136;2022-11-12T10:03:00;14.80;;;7.65;;
51270;SDS011;37744;50.960;4.136;2022-11-12T10:06:48;11.25;;;7.90;;
51270;SDS011;37744;50.960;4.136;2022-11-12T10:10:31;10.85;;;6.90;;
51270;SDS011;37744;50.960;4.136;2022-11-12T10:14:27;11.82;;;6.75;;
51270;SDS011;37744;50.960;4.136;2022-11-12T10:18:27;11.43;;;7.45;;
51270;SDS011;37744;50.960;4.136;2022-11-12T10:25:58;10.38;;;7.43;;
51270;SDS011;37744;50.960;4.136;2022-11-12T10:29:27;10.02;;;7.28;;
51270;SDS011;37744;50.960;4.136;2022-11-12T10:32:55;10.05;;;7.68;;
51270;SDS011;37744;50.960;4.136;2022-11-12T10:36:51;11.20;;;7.47;;
51270;SDS011;37744;50.960;4.136;2022-11-12T10:44:00;11.68;;;7.45;;
51270;SDS011;37744;50.960;4.136;2022-11-12T10:47:46;11.80;;;7.85;;
51270;SDS011;37744;50.960;4.136;2022-11-12T10:51:24;9.07;;;6.93;;
51270;SDS011;37744;50.960;4.136;2022-11-12T10:54:48;14.25;;;7.63;;
51270;SDS011;37744;50.960;4.136;2022-11-12T10:58:28;12.20;;;7.35;;
51270;SDS011;37744;50.960;4.136;2022-11-12T11:01:55;10.85;;;7.82;;
51270;SDS011;37744;50.960;4.136;2022-11-12T11:05:33;9.95;;;7.07;;
51270;SDS011;37744;50.960;4.136;2022-11-12T11:09:08;11.73;;;7.43;;
51270;SDS011;37744;50.960;4.136;2022-11-12T11:12:46;10.10;;;6.63;;
51270;SDS011;37744;50.960;4.136;2022-11-12T11:19:40;10.45;;;6.88;;
51270;SDS011;37744;50.960;4.136;2022-11-12T11:23:26;8.80;;;6.20;;
51270;SDS011;37744;50.960;4.136;2022-11-12T11:27:25;10.02;;;6.25;;
51270;SDS011;37744;50.960;4.136;2022-11-12T11:31:05;9.10;;;6.45;;
51270;SDS011;37744;50.960;4.136;2022-11-12T11:35:15;9.68;;;6.85;;
51270;SDS011;37744;50.960;4.136;2022-11-12T11:38:55;9.52;;;5.78;;
51270;SDS011;37744;50.960;4.136;2022-11-12T11:56:42;8.70;;;6.63;;
51270;SDS011;37744;50.960;4.136;2022-11-12T12:00:18;10.25;;;7.45;;
51270;SDS011;37744;50.960;4.136;2022-11-12T12:03:57;9.85;;;7.38;;
51270;SDS011;37744;50.960;4.136;2022-11-12T12:11:11;8.45;;;6.57;;
51270;SDS011;37744;50.960;4.136;2022-11-12T12:18:42;7.95;;;6.15;;
51270;SDS011;37744;50.960;4.136;2022-11-12T12:22:11;8.75;;;5.97;;
51270;SDS011;37744;50.960;4.136;2022-11-12T12:25:45;7.60;;;6.25;;
51270;SDS011;37744;50.960;4.136;2022-11-12T12:32:39;7.30;;;5.77;;
51270;SDS011;37744;50.960;4.136;2022-11-12T12:36:14;10.25;;;6.50;;
51270;SDS011;37744;50.960;4.136;2022-11-12T12:43:40;8.52;;;5.57;;
51270;SDS011;37744;50.960;4.136;2022-11-12T12:47:24;6.82;;;5.45;;
51270;SDS011;37744;50.960;4.136;2022-11-12T12:50:52;7.75;;;5.25;;
51270;SDS011;37744;50.960;4.136;2022-11-12T12:58:25;7.35;;;5.72;;
51270;SDS011;37744;50.960;4.136;2022-11-12T13:01:55;8.90;;;5.15;;
51270;SDS011;37744;50.960;4.136;2022-11-12T13:05:24;8.43;;;5.20;;
51270;SDS011;37744;50.960;4.136;2022-11-12T13:09:04;10.32;;;5.85;;
51270;SDS011;37744;50.960;4.136;2022-11-12T13:13:01;7.90;;;5.50;;
51270;SDS011;37744;50.960;4.136;2022-11-12T13:20:15;8.05;;;5.60;;
51270;SDS011;37744;50.960;4.136;2022-11-12T13:31:26;6.40;;;5.20;;
51270;SDS011;37744;50.960;4.136;2022-11-12T13:35:32;8.05;;;4.80;;
51270;SDS011;37744;50.960;4.136;2022-11-12T13:39:11;12.55;;;5.97;;
51270;SDS011;37744;50.960;4.136;2022-11-12T13:43:02;5.55;;;4.03;;
51270;SDS011;37744;50.960;4.136;2022-11-12T13:46:32;8.02;;;4.22;;
51270;SDS011;37744;50.960;4.136;2022-11-12T13:49:57;6.28;;;4.13;;
51270;SDS011;37744;50.960;4.136;2022-11-12T13:53:26;7.07;;;4.85;;
51270;SDS011;37744;50.960;4.136;2022-11-12T13:56:50;7.45;;;4.93;;
51270;SDS011;37744;50.960;4.136;2022-11-12T14:00:19;9.63;;;5.68;;
51270;SDS011;37744;50.960;4.136;2022-11-12T14:03:49;6.05;;;4.95;;
51270;SDS011;37744;50.960;4.136;2022-11-12T14:11:27;7.40;;;5.60;;
51270;SDS011;37744;50.960;4.136;2022-11-12T14:22:46;7.05;;;4.93;;
51270;SDS011;37744;50.960;4.136;2022-11-12T14:26:12;6.10;;;4.60;;
51270;SDS011;37744;50.960;4.136;2022-11-12T14:33:50;6.85;;;4.95;;
51270;SDS011;37744;50.960;4.136;2022-11-12T14:37:22;8.07;;;5.25;;
51270;SDS011;37744;50.960;4.136;2022-11-12T14:40:58;5.90;;;4.60;;
51270;SDS011;37744;50.960;4.136;2022-11-12T14:44:30;8.00;;;4.75;;
51270;SDS011;37744;50.960;4.136;2022-11-12T14:47:56;5.93;;;4.90;;
51270;SDS011;37744;50.960;4.136;2022-11-12T14:51:23;6.97;;;5.20;;
51270;SDS011;37744;50.960;4.136;2022-11-12T14:54:58;5.80;;;5.00;;
51270;SDS011;37744;50.960;4.136;2022-11-12T14:58:26;7.05;;;5.03;;
51270;SDS011;37744;50.960;4.136;2022-11-12T15:02:07;8.68;;;5.35;;
51270;SDS011;37744;50.960;4.136;2022-11-12T15:05:36;5.90;;;4.75;;
51270;SDS011;37744;50.960;4.136;2022-11-12T15:09:17;8.98;;;5.13;;
51270;SDS011;37744;50.960;4.136;2022-11-12T15:12:59;6.25;;;4.72;;
51270;SDS011;37744;50.960;4.136;2022-11-12T15:16:30;10.13;;;6.28;;
51270;SDS011;37744;50.960;4.136;2022-11-12T15:20:00;11.88;;;5.75;;
51270;SDS011;37744;50.960;4.136;2022-11-12T15:23:29;10.15;;;5.80;;
51270;SDS011;37744;50.960;4.136;2022-11-12T15:26:58;9.35;;;5.22;;
51270;SDS011;37744;50.960;4.136;2022-11-12T15:30:36;8.48;;;5.35;;
51270;SDS011;37744;50.960;4.136;2022-11-12T15:37:50;12.48;;;7.82;;
51270;SDS011;37744;50.960;4.136;2022-11-12T15:41:22;10.73;;;5.90;;
51270;SDS011;37744;50.960;4.136;2022-11-12T15:44:50;9.60;;;6.03;;
51270;SDS011;37744;50.960;4.136;2022-11-12T15:48:18;6.40;;;4.35;;
51270;SDS011;37744;50.960;4.136;2022-11-12T15:51:42;5.60;;;3.90;;
51270;SDS011;37744;50.960;4.136;2022-11-12T15:55:06;9.63;;;5.40;;
51270;SDS011;37744;50.960;4.136;2022-11-12T15:58:35;7.45;;;5.43;;
51270;SDS011;37744;50.960;4.136;2022-11-12T16:02:00;8.07;;;5.40;;
51270;SDS011;37744;50.960;4.136;2022-11-12T16:05:26;6.97;;;4.25;;
51270;SDS011;37744;50.960;4.136;2022-11-12T16:08:50;6.45;;;4.80;;
51270;SDS011;37744;50.960;4.136;2022-11-12T16:12:16;8.43;;;5.18;;
51270;SDS011;37744;50.960;4.136;2022-11-12T16:15:49;5.40;;;4.22;;
51270;SDS011;37744;50.960;4.136;2022-11-12T16:19:13;8.43;;;5.10;;
51270;SDS011;37744;50.960;4.136;2022-11-12T16:22:39;7.47;;;5.22;;
51270;SDS011;37744;50.960;4.136;2022-11-12T16:26:03;9.17;;;6.07;;
51270;SDS011;37744;50.960;4.136;2022-11-12T16:29:32;11.00;;;6.50;;
51270;SDS011;37744;50.960;4.136;2022-11-12T16:32:58;8.20;;;5.70;;
51270;SDS011;37744;50.960;4.136;2022-11-12T16:36:22;11.93;;;6.05;;
51270;SDS011;37744;50.960;4.136;2022-11-12T16:39:46;9.87;;;5.67;;
51270;SDS011;37744;50.960;4.136;2022-11-12T16:43:10;10.60;;;6.30;;
51270;SDS011;37744;50.960;4.136;2022-11-12T16:46:35;13.20;;;8.60;;
51270;SDS011;37744;50.960;4.136;2022-11-12T16:50:01;11.32;;;6.70;;
51270;SDS011;37744;50.960;4.136;2022-11-12T16:53:24;8.10;;;6.10;;
51270;SDS011;37744;50.960;4.136;2022-11-12T16:56:48;9.07;;;6.20;;
51270;SDS011;37744;50.960;4.136;2022-11-12T17:00:13;8.03;;;6.50;;
51270;SDS011;37744;50.960;4.136;2022-11-12T17:03:54;9.85;;;7.50;;
51270;SDS011;37744;50.960;4.136;2022-11-12T17:07:18;9.60;;;6.80;;
51270;SDS011;37744;50.960;4.136;2022-11-12T17:10:42;10.17;;;8.23;;
51270;SDS011;37744;50.960;4.136;2022-11-12T17:14:07;11.10;;;8.73;;
51270;SDS011;37744;50.960;4.136;2022-11-12T17:17:31;11.38;;;8.45;;
51270;SDS011;37744;50.960;4.136;2022-11-12T17:21:04;16.45;;;11.38;;
51270;SDS011;37744;50.960;4.136;2022-11-12T17:24:28;15.73;;;11.13;;
51270;SDS011;37744;50.960;4.136;2022-11-12T17:27:52;14.05;;;9.40;;
51270;SDS011;37744;50.960;4.136;2022-11-12T17:31:20;25.63;;;18.48;;
51270;SDS011;37744;50.960;4.136;2022-11-12T17:34:44;24.42;;;17.80;;
51270;SDS011;37744;50.960;4.136;2022-11-12T17:38:08;18.30;;;14.73;;
51270;SDS011;37744;50.960;4.136;2022-11-12T17:41:36;17.67;;;12.48;;
51270;SDS011;37744;50.960;4.136;2022-11-12T17:45:00;22.10;;;14.90;;
51270;SDS011;37744;50.960;4.136;2022-11-12T17:48:24;20.13;;;14.43;;
51270;SDS011;37744;50.960;4.136;2022-11-12T17:51:48;16.50;;;12.25;;
51270;SDS011;37744;50.960;4.136;2022-11-12T17:55:12;18.42;;;13.68;;
51270;SDS011;37744;50.960;4.136;2022-11-12T17:58:37;15.23;;;12.18;;
51270;SDS011;37744;50.960;4.136;2022-11-12T18:02:01;16.38;;;12.85;;
51270;SDS011;37744;50.960;4.136;2022-11-12T18:05:25;18.02;;;12.32;;
51270;SDS011;37744;50.960;4.136;2022-11-12T18:08:53;17.02;;;11.68;;
51270;SDS011;37744;50.960;4.136;2022-11-12T18:12:17;16.15;;;11.27;;
51270;SDS011;37744;50.960;4.136;2022-11-12T18:15:41;15.73;;;11.43;;
51270;SDS011;37744;50.960;4.136;2022-11-12T18:19:05;21.48;;;14.88;;
51270;SDS011;37744;50.960;4.136;2022-11-12T18:22:30;19.95;;;14.40;;
51270;SDS011;37744;50.960;4.136;2022-11-12T18:25:54;26.05;;;17.60;;
51270;SDS011;37744;50.960;4.136;2022-11-12T18:29:18;30.20;;;19.65;;
51270;SDS011;37744;50.960;4.136;2022-11-12T18:32:42;28.13;;;18.60;;
51270;SDS011;37744;50.960;4.136;2022-11-12T18:36:12;27.87;;;17.50;;
51270;SDS011;37744;50.960;4.136;2022-11-12T18:39:37;21.20;;;14.20;;
51270;SDS011;37744;50.960;4.136;2022-11-12T18:43:01;22.20;;;15.52;;
51270;SDS011;37744;50.960;4.136;2022-11-12T18:46:26;20.42;;;14.00;;
51270;SDS011;37744;50.960;4.136;2022-11-12T18:49:50;21.00;;;14.52;;
51270;SDS011;37744;50.960;4.136;2022-11-12T18:53:14;17.53;;;12.70;;
51270;SDS011;37744;50.960;4.136;2022-11-12T18:56:39;14.82;;;10.43;;
51270;SDS011;37744;50.960;4.136;2022-11-12T19:00:03;16.23;;;10.77;;
51270;SDS011;37744;50.960;4.136;2022-11-12T19:03:47;16.90;;;11.15;;
51270;SDS011;37744;50.960;4.136;2022-11-12T19:07:11;18.75;;;11.48;;
51270;SDS011;37744;50.960;4.136;2022-11-12T19:10:35;15.97;;;10.53;;
51270;SDS011;37744;50.960;4.136;2022-11-12T19:14:01;13.53;;;9.57;;
51270;SDS011;37744;50.960;4.136;2022-11-12T19:17:24;19.48;;;14.43;;
51270;SDS011;37744;50.960;4.136;2022-11-12T19:20:48;21.57;;;14.57;;
51270;SDS011;37744;50.960;4.136;2022-11-12T19:24:12;27.98;;;17.27;;
51270;SDS011;37744;50.960;4.136;2022-11-12T19:27:38;35.43;;;18.83;;
51270;SDS011;37744;50.960;4.136;2022-11-12T19:31:15;33.35;;;19.10;;
51270;SDS011;37744;50.960;4.136;2022-11-12T19:34:39;28.08;;;18.33;;
51270;SDS011;37744;50.960;4.136;2022-11-12T19:41:28;25.02;;;15.50;;
51270;SDS011;37744;50.960;4.136;2022-11-12T19:44:53;22.87;;;13.47;;
51270;SDS011;37744;50.960;4.136;2022-11-12T19:48:16;19.52;;;12.88;;
51270;SDS011;37744;50.960;4.136;2022-11-12T19:51:41;21.73;;;14.27;;
51270;SDS011;37744;50.960;4.136;2022-11-12T19:55:05;20.23;;;13.70;;
51270;SDS011;37744;50.960;4.136;2022-11-12T19:58:32;20.23;;;13.73;;
51270;SDS011;37744;50.960;4.136;2022-11-12T20:01:58;30.67;;;17.13;;
51270;SDS011;37744;50.960;4.136;2022-11-12T20:05:23;30.42;;;19.27;;
51270;SDS011;37744;50.960;4.136;2022-11-12T20:08:49;27.65;;;17.88;;
51270;SDS011;37744;50.960;4.136;2022-11-12T20:12:14;30.00;;;18.73;;
51270;SDS011;37744;50.960;4.136;2022-11-12T20:15:38;24.73;;;16.52;;
51270;SDS011;37744;50.960;4.136;2022-11-12T20:19:03;22.67;;;15.77;;
51270;SDS011;37744;50.960;4.136;2022-11-12T20:22:28;27.08;;;16.90;;
51270;SDS011;37744;50.960;4.136;2022-11-12T20:25:52;22.05;;;14.68;;
51270;SDS011;37744;50.960;4.136;2022-11-12T20:29:16;28.13;;;16.70;;
51270;SDS011;37744;50.960;4.136;2022-11-12T20:32:41;21.60;;;14.85;;
51270;SDS011;37744;50.960;4.136;2022-11-12T20:36:11;22.00;;;15.38;;
51270;SDS011;37744;50.960;4.136;2022-11-12T20:39:35;22.33;;;15.80;;
51270;SDS011;37744;50.960;4.136;2022-11-12T20:42:59;23.83;;;15.90;;
51270;SDS011;37744;50.960;4.136;2022-11-12T20:46:25;23.45;;;16.15;;
51270;SDS011;37744;50.960;4.136;2022-11-12T20:49:50;29.00;;;17.73;;
51270;SDS011;37744;50.960;4.136;2022-11-12T20:53:14;24.45;;;16.10;;
51270;SDS011;37744;50.960;4.136;2022-11-12T20:56:38;23.52;;;16.13;;
51270;SDS011;37744;50.960;4.136;2022-11-12T21:00:03;20.50;;;14.33;;
51270;SDS011;37744;50.960;4.136;2022-11-12T21:03:31;21.58;;;14.20;;
51270;SDS011;37744;50.960;4.136;2022-11-12T21:06:55;21.23;;;14.32;;
51270;SDS011;37744;50.960;4.136;2022-11-12T21:10:21;19.52;;;13.50;;
51270;SDS011;37744;50.960;4.136;2022-11-12T21:13:46;22.73;;;14.65;;
51270;SDS011;37744;50.960;4.136;2022-11-12T21:17:10;25.95;;;18.15;;
51270;SDS011;37744;50.960;4.136;2022-11-12T21:20:34;23.13;;;17.00;;
51270;SDS011;37744;50.960;4.136;2022-11-12T21:23:58;27.57;;;17.03;;
51270;SDS011;37744;50.960;4.136;2022-11-12T21:30:49;19.67;;;13.73;;
51270;SDS011;37744;50.960;4.136;2022-11-12T21:37:37;22.70;;;13.80;;
51270;SDS011;37744;50.960;4.136;2022-11-12T21:41:08;21.37;;;14.40;;
51270;SDS011;37744;50.960;4.136;2022-11-12T21:44:35;22.65;;;15.40;;
51270;SDS011;37744;50.960;4.136;2022-11-12T21:47:59;21.30;;;13.02;;
51270;SDS011;37744;50.960;4.136;2022-11-12T21:51:24;22.30;;;14.57;;
51270;SDS011;37744;50.960;4.136;2022-11-12T21:54:50;20.65;;;14.05;;
51270;SDS011;37744;50.960;4.136;2022-11-12T21:58:14;20.70;;;13.50;;
51270;SDS011;37744;50.960;4.136;2022-11-12T22:01:38;21.87;;;12.93;;
51270;SDS011;37744;50.960;4.136;2022-11-12T22:05:03;21.00;;;13.37;;
51270;SDS011;37744;50.960;4.136;2022-11-12T22:08:30;19.10;;;13.30;;
51270;SDS011;37744;50.960;4.136;2022-11-12T22:11:55;15.15;;;11.10;;
51270;SDS011;37744;50.960;4.136;2022-11-12T22:15:19;15.77;;;10.85;;
51270;SDS011;37744;50.960;4.136;2022-11-12T22:18:47;15.98;;;11.48;;
51270;SDS011;37744;50.960;4.136;2022-11-12T22:22:12;20.27;;;12.32;;
51270;SDS011;37744;50.960;4.136;2022-11-12T22:25:36;17.53;;;12.37;;
51270;SDS011;37744;50.960;4.136;2022-11-12T22:29:01;18.48;;;11.07;;
51270;SDS011;37744;50.960;4.136;2022-11-12T22:32:26;17.75;;;11.77;;
51270;SDS011;37744;50.960;4.136;2022-11-12T22:35:51;15.27;;;11.18;;
51270;SDS011;37744;50.960;4.136;2022-11-12T22:39:14;17.50;;;12.23;;
51270;SDS011;37744;50.960;4.136;2022-11-12T22:42:39;19.55;;;13.93;;
51270;SDS011;37744;50.960;4.136;2022-11-12T22:49:31;25.13;;;16.27;;
51270;SDS011;37744;50.960;4.136;2022-11-12T22:52:55;21.40;;;14.50;;
51270;SDS011;37744;50.960;4.136;2022-11-12T22:56:24;17.35;;;12.13;;
51270;SDS011;37744;50.960;4.136;2022-11-12T22:59:52;28.10;;;18.50;;
51270;SDS011;37744;50.960;4.136;2022-11-12T23:03:19;30.42;;;19.17;;
51270;SDS011;37744;50.960;4.136;2022-11-12T23:06:47;30.23;;;16.08;;
51270;SDS011;37744;50.960;4.136;2022-11-12T23:10:11;25.60;;;17.10;;
51270;SDS011;37744;50.960;4.136;2022-11-12T23:13:36;22.23;;;15.85;;
51270;SDS011;37744;50.960;4.136;2022-11-12T23:17:02;22.50;;;15.20;;